sensor_id;sensor_type;location;lat;lon;timestamp;P1;durP1;ratioP1;P2;durP2;ratioP2
64868;SDS011;51349;52.424;10.840;2022-11-21T00:04:34;17.00;;;11.23;;
64868;SDS011;51349;52.424;10.840;2022-11-21T00:09:35;15.30;;;11.10;;
64868;SDS011;51349;52.424;10.840;2022-11-21T00:14:35;16.30;;;10.20;;
64868;SDS011;51349;52.424;10.840;2022-11-21T00:19:36;17.33;;;11.07;;
64868;SDS011;51349;52.424;10.840;2022-11-21T00:24:37;13.00;;;9.90;;
64868;SDS011;51349;52.424;10.840;2022-11-21T00:29:37;16.63;;;10.87;;
64868;SDS011;51349;52.424;10.840;2022-11-21T00:34:38;16.13;;;10.23;;
64868;SDS011;51349;52.424;10.840;2022-11-21T00:39:41;16.53;;;10.40;;
64868;SDS011;51349;52.424;10.840;2022-11-21T00:44:42;15.67;;;10.93;;
64868;SDS011;51349;52.424;10.840;2022-11-21T00:49:43;15.43;;;10.67;;
64868;SDS011;51349;52.424;10.840;2022-11-21T00:54:43;16.63;;;10.77;;
64868;SDS011;51349;52.424;10.840;2022-11-21T00:59:44;16.00;;;10.83;;
64868;SDS011;51349;52.424;10.840;2022-11-21T01:04:44;17.40;;;11.23;;
64868;SDS011;51349;52.424;10.840;2022-11-21T01:09:45;18.10;;;11.07;;
64868;SDS011;51349;52.424;10.840;2022-11-21T01:14:45;18.43;;;11.07;;
64868;SDS011;51349;52.424;10.840;2022-11-21T01:19:46;15.63;;;11.00;;
64868;SDS011;51349;52.424;10.840;2022-11-21T01:24:47;14.47;;;10.40;;
64868;SDS011;51349;52.424;10.840;2022-11-21T01:29:47;16.27;;;11.07;;
64868;SDS011;51349;52.424;10.840;2022-11-21T01:34:48;14.77;;;10.50;;
64868;SDS011;51349;52.424;10.840;2022-11-21T01:39:48;14.40;;;10.50;;
64868;SDS011;51349;52.424;10.840;2022-11-21T01:44:50;15.63;;;10.63;;
64868;SDS011;51349;52.424;10.840;2022-11-21T01:49:53;16.40;;;11.10;;
64868;SDS011;51349;52.424;10.840;2022-11-21T01:54:57;15.77;;;10.93;;
64868;SDS011;51349;52.424;10.840;2022-11-21T02:05:16;15.67;;;10.50;;
64868;SDS011;51349;52.424;10.840;2022-11-21T02:10:28;13.23;;;10.10;;
64868;SDS011;51349;52.424;10.840;2022-11-21T02:15:29;14.90;;;11.10;;
64868;SDS011;51349;52.424;10.840;2022-11-21T02:20:32;18.33;;;10.90;;
64868;SDS011;51349;52.424;10.840;2022-11-21T02:25:35;17.60;;;11.73;;
64868;SDS011;51349;52.424;10.840;2022-11-21T02:30:38;17.53;;;11.70;;
64868;SDS011;51349;52.424;10.840;2022-11-21T02:35:43;16.10;;;10.20;;
64868;SDS011;51349;52.424;10.840;2022-11-21T02:40:47;15.77;;;10.83;;
64868;SDS011;51349;52.424;10.840;2022-11-21T02:45:55;16.03;;;10.77;;
64868;SDS011;51349;52.424;10.840;2022-11-21T02:50:55;15.17;;;10.40;;
64868;SDS011;51349;52.424;10.840;2022-11-21T02:55:56;16.50;;;10.67;;
64868;SDS011;51349;52.424;10.840;2022-11-21T03:00:57;14.60;;;10.73;;
64868;SDS011;51349;52.424;10.840;2022-11-21T03:05:57;16.57;;;10.77;;
64868;SDS011;51349;52.424;10.840;2022-11-21T03:10:58;14.63;;;9.93;;
64868;SDS011;51349;52.424;10.840;2022-11-21T03:15:58;16.83;;;10.90;;
64868;SDS011;51349;52.424;10.840;2022-11-21T03:20:59;16.17;;;10.80;;
64868;SDS011;51349;52.424;10.840;2022-11-21T03:26:02;14.67;;;10.37;;
64868;SDS011;51349;52.424;10.840;2022-11-21T03:31:03;15.87;;;10.33;;
64868;SDS011;51349;52.424;10.840;2022-11-21T03:36:04;14.23;;;9.67;;
64868;SDS011;51349;52.424;10.840;2022-11-21T03:41:04;15.73;;;10.50;;
64868;SDS011;51349;52.424;10.840;2022-11-21T03:46:29;18.00;;;10.67;;
64868;SDS011;51349;52.424;10.840;2022-11-21T03:51:31;16.13;;;10.63;;
64868;SDS011;51349;52.424;10.840;2022-11-21T03:56:32;14.87;;;10.27;;
64868;SDS011;51349;52.424;10.840;2022-11-21T04:01:33;14.40;;;10.43;;
64868;SDS011;51349;52.424;10.840;2022-11-21T04:06:34;16.60;;;11.07;;
64868;SDS011;51349;52.424;10.840;2022-11-21T04:11:34;15.00;;;10.30;;
64868;SDS011;51349;52.424;10.840;2022-11-21T04:16:35;16.70;;;10.07;;
64868;SDS011;51349;52.424;10.840;2022-11-21T04:21:36;17.47;;;10.93;;
64868;SDS011;51349;52.424;10.840;2022-11-21T04:26:36;15.93;;;10.87;;
64868;SDS011;51349;52.424;10.840;2022-11-21T04:31:37;16.27;;;10.10;;
64868;SDS011;51349;52.424;10.840;2022-11-21T04:36:37;18.23;;;10.90;;
64868;SDS011;51349;52.424;10.840;2022-11-21T04:41:38;15.17;;;9.47;;
64868;SDS011;51349;52.424;10.840;2022-11-21T04:46:38;16.33;;;9.97;;
64868;SDS011;51349;52.424;10.840;2022-11-21T04:51:39;17.40;;;9.83;;
64868;SDS011;51349;52.424;10.840;2022-11-21T04:56:40;15.10;;;9.67;;
64868;SDS011;51349;52.424;10.840;2022-11-21T05:01:40;18.07;;;10.40;;
64868;SDS011;51349;52.424;10.840;2022-11-21T05:06:41;17.50;;;10.90;;
64868;SDS011;51349;52.424;10.840;2022-11-21T05:11:41;16.77;;;10.70;;
64868;SDS011;51349;52.424;10.840;2022-11-21T05:17:00;16.60;;;9.50;;
64868;SDS011;51349;52.424;10.840;2022-11-21T05:22:01;17.57;;;11.17;;
64868;SDS011;51349;52.424;10.840;2022-11-21T05:27:02;16.17;;;10.30;;
64868;SDS011;51349;52.424;10.840;2022-11-21T05:32:02;16.63;;;10.23;;
64868;SDS011;51349;52.424;10.840;2022-11-21T05:37:03;19.37;;;11.40;;
64868;SDS011;51349;52.424;10.840;2022-11-21T05:42:04;18.67;;;11.43;;
64868;SDS011;51349;52.424;10.840;2022-11-21T05:47:04;21.23;;;11.80;;
64868;SDS011;51349;52.424;10.840;2022-11-21T05:52:05;19.20;;;10.67;;
64868;SDS011;51349;52.424;10.840;2022-11-21T05:57:05;21.47;;;12.70;;
64868;SDS011;51349;52.424;10.840;2022-11-21T06:02:06;17.43;;;10.83;;
64868;SDS011;51349;52.424;10.840;2022-11-21T06:07:25;18.17;;;11.03;;
64868;SDS011;51349;52.424;10.840;2022-11-21T06:12:25;17.57;;;11.37;;
64868;SDS011;51349;52.424;10.840;2022-11-21T06:17:26;20.33;;;12.03;;
64868;SDS011;51349;52.424;10.840;2022-11-21T06:22:27;18.27;;;11.57;;
64868;SDS011;51349;52.424;10.840;2022-11-21T06:27:28;18.73;;;11.60;;
64868;SDS011;51349;52.424;10.840;2022-11-21T06:32:29;23.60;;;12.63;;
64868;SDS011;51349;52.424;10.840;2022-11-21T06:37:29;18.20;;;11.70;;
64868;SDS011;51349;52.424;10.840;2022-11-21T06:42:31;21.80;;;12.37;;
64868;SDS011;51349;52.424;10.840;2022-11-21T06:47:35;21.43;;;12.23;;
64868;SDS011;51349;52.424;10.840;2022-11-21T06:52:35;20.93;;;12.13;;
64868;SDS011;51349;52.424;10.840;2022-11-21T06:57:36;24.67;;;12.37;;
64868;SDS011;51349;52.424;10.840;2022-11-21T07:02:36;27.27;;;12.50;;
64868;SDS011;51349;52.424;10.840;2022-11-21T07:07:37;23.33;;;11.13;;
64868;SDS011;51349;52.424;10.840;2022-11-21T07:12:38;24.67;;;12.73;;
64868;SDS011;51349;52.424;10.840;2022-11-21T07:17:57;25.33;;;12.87;;
64868;SDS011;51349;52.424;10.840;2022-11-21T07:22:58;25.83;;;13.73;;
64868;SDS011;51349;52.424;10.840;2022-11-21T07:27:59;23.33;;;12.90;;
64868;SDS011;51349;52.424;10.840;2022-11-21T07:33:01;26.57;;;13.27;;
64868;SDS011;51349;52.424;10.840;2022-11-21T07:38:04;25.43;;;12.27;;
64868;SDS011;51349;52.424;10.840;2022-11-21T07:43:05;22.80;;;11.73;;
64868;SDS011;51349;52.424;10.840;2022-11-21T07:48:06;27.73;;;13.83;;
64868;SDS011;51349;52.424;10.840;2022-11-21T07:53:08;26.33;;;13.47;;
64868;SDS011;51349;52.424;10.840;2022-11-21T07:58:11;24.77;;;13.20;;
64868;SDS011;51349;52.424;10.840;2022-11-21T08:03:12;18.47;;;10.07;;
64868;SDS011;51349;52.424;10.840;2022-11-21T08:08:13;23.43;;;11.90;;
64868;SDS011;51349;52.424;10.840;2022-11-21T08:13:14;26.53;;;13.50;;
64868;SDS011;51349;52.424;10.840;2022-11-21T08:18:15;24.30;;;12.27;;
64868;SDS011;51349;52.424;10.840;2022-11-21T08:23:19;21.60;;;12.27;;
64868;SDS011;51349;52.424;10.840;2022-11-21T08:28:20;21.63;;;11.50;;
64868;SDS011;51349;52.424;10.840;2022-11-21T08:33:21;21.87;;;11.97;;
64868;SDS011;51349;52.424;10.840;2022-11-21T08:38:21;20.97;;;11.57;;
64868;SDS011;51349;52.424;10.840;2022-11-21T08:43:22;21.43;;;11.53;;
64868;SDS011;51349;52.424;10.840;2022-11-21T08:48:22;19.80;;;12.13;;
64868;SDS011;51349;52.424;10.840;2022-11-21T08:53:23;22.37;;;12.07;;
64868;SDS011;51349;52.424;10.840;2022-11-21T08:58:24;22.70;;;13.40;;
64868;SDS011;51349;52.424;10.840;2022-11-21T09:03:24;22.77;;;12.90;;
64868;SDS011;51349;52.424;10.840;2022-11-21T09:08:25;23.37;;;12.80;;
64868;SDS011;51349;52.424;10.840;2022-11-21T09:13:26;23.43;;;13.83;;
64868;SDS011;51349;52.424;10.840;2022-11-21T09:18:26;23.37;;;13.33;;
64868;SDS011;51349;52.424;10.840;2022-11-21T09:23:27;23.20;;;13.60;;
64868;SDS011;51349;52.424;10.840;2022-11-21T09:28:28;23.13;;;13.33;;
64868;SDS011;51349;52.424;10.840;2022-11-21T09:33:28;20.90;;;12.53;;
64868;SDS011;51349;52.424;10.840;2022-11-21T09:38:29;21.53;;;12.33;;
64868;SDS011;51349;52.424;10.840;2022-11-21T09:43:39;20.57;;;12.40;;
64868;SDS011;51349;52.424;10.840;2022-11-21T09:48:53;19.73;;;10.90;;
64868;SDS011;51349;52.424;10.840;2022-11-21T09:59:31;17.70;;;10.57;;
64868;SDS011;51349;52.424;10.840;2022-11-21T10:04:35;23.87;;;13.37;;
64868;SDS011;51349;52.424;10.840;2022-11-21T10:25:27;24.87;;;14.37;;
64868;SDS011;51349;52.424;10.840;2022-11-21T10:30:35;24.63;;;15.17;;
64868;SDS011;51349;52.424;10.840;2022-11-21T10:35:45;30.37;;;15.73;;
64868;SDS011;51349;52.424;10.840;2022-11-21T10:46:11;26.73;;;16.00;;
64868;SDS011;51349;52.424;10.840;2022-11-21T11:06:26;17.90;;;11.37;;
64868;SDS011;51349;52.424;10.840;2022-11-21T11:11:28;17.10;;;12.07;;
64868;SDS011;51349;52.424;10.840;2022-11-21T11:16:29;20.37;;;12.87;;
64868;SDS011;51349;52.424;10.840;2022-11-21T11:37:12;17.43;;;10.70;;
64868;SDS011;51349;52.424;10.840;2022-11-21T11:47:54;10.17;;;7.93;;
64868;SDS011;51349;52.424;10.840;2022-11-21T11:58:30;10.17;;;8.33;;
64868;SDS011;51349;52.424;10.840;2022-11-21T12:04:24;13.27;;;8.53;;
64868;SDS011;51349;52.424;10.840;2022-11-21T12:20:14;10.73;;;8.10;;
64868;SDS011;51349;52.424;10.840;2022-11-21T12:25:40;16.57;;;8.00;;
64868;SDS011;51349;52.424;10.840;2022-11-21T12:36:19;9.30;;;7.50;;
64868;SDS011;51349;52.424;10.840;2022-11-21T12:41:39;10.73;;;6.70;;
64868;SDS011;51349;52.424;10.840;2022-11-21T12:52:58;8.33;;;6.27;;
64868;SDS011;51349;52.424;10.840;2022-11-21T12:58:35;6.47;;;5.70;;
64868;SDS011;51349;52.424;10.840;2022-11-21T13:03:58;6.67;;;5.63;;
64868;SDS011;51349;52.424;10.840;2022-11-21T13:09:04;5.77;;;5.13;;
64868;SDS011;51349;52.424;10.840;2022-11-21T14:06:41;7.13;;;5.87;;
64868;SDS011;51349;52.424;10.840;2022-11-21T14:11:43;5.90;;;5.33;;
64868;SDS011;51349;52.424;10.840;2022-11-21T14:16:52;7.57;;;6.27;;
64868;SDS011;51349;52.424;10.840;2022-11-21T14:27:31;9.33;;;7.37;;
64868;SDS011;51349;52.424;10.840;2022-11-21T14:32:36;9.37;;;7.13;;
64868;SDS011;51349;52.424;10.840;2022-11-21T14:37:40;8.40;;;7.37;;
64868;SDS011;51349;52.424;10.840;2022-11-21T14:42:41;7.63;;;6.47;;
64868;SDS011;51349;52.424;10.840;2022-11-21T14:47:45;6.43;;;5.60;;
64868;SDS011;51349;52.424;10.840;2022-11-21T14:52:50;6.70;;;6.00;;
64868;SDS011;51349;52.424;10.840;2022-11-21T14:57:56;7.87;;;6.07;;
64868;SDS011;51349;52.424;10.840;2022-11-21T15:03:02;8.37;;;6.47;;
64868;SDS011;51349;52.424;10.840;2022-11-21T15:08:03;10.47;;;6.53;;
64868;SDS011;51349;52.424;10.840;2022-11-21T15:13:06;11.43;;;7.33;;
64868;SDS011;51349;52.424;10.840;2022-11-21T15:18:13;11.17;;;7.20;;
64868;SDS011;51349;52.424;10.840;2022-11-21T15:23:31;9.77;;;6.83;;
64868;SDS011;51349;52.424;10.840;2022-11-21T15:28:33;10.93;;;6.97;;
64868;SDS011;51349;52.424;10.840;2022-11-21T15:33:52;9.40;;;7.00;;
64868;SDS011;51349;52.424;10.840;2022-11-21T15:39:00;8.53;;;6.53;;
64868;SDS011;51349;52.424;10.840;2022-11-21T15:49:04;17.30;;;13.33;;
64868;SDS011;51349;52.424;10.840;2022-11-21T15:54:06;24.57;;;15.20;;
64868;SDS011;51349;52.424;10.840;2022-11-21T15:59:12;14.37;;;9.67;;
64868;SDS011;51349;52.424;10.840;2022-11-21T16:04:13;24.53;;;13.53;;
64868;SDS011;51349;52.424;10.840;2022-11-21T16:09:14;21.20;;;11.83;;
64868;SDS011;51349;52.424;10.840;2022-11-21T16:14:14;16.23;;;9.40;;
64868;SDS011;51349;52.424;10.840;2022-11-21T16:19:17;15.60;;;9.03;;
64868;SDS011;51349;52.424;10.840;2022-11-21T16:24:17;18.70;;;10.50;;
64868;SDS011;51349;52.424;10.840;2022-11-21T16:29:18;15.43;;;9.20;;
64868;SDS011;51349;52.424;10.840;2022-11-21T16:34:18;16.70;;;10.47;;
64868;SDS011;51349;52.424;10.840;2022-11-21T16:39:19;12.43;;;8.00;;
64868;SDS011;51349;52.424;10.840;2022-11-21T16:44:20;12.53;;;8.87;;
64868;SDS011;51349;52.424;10.840;2022-11-21T16:49:20;12.90;;;8.57;;
64868;SDS011;51349;52.424;10.840;2022-11-21T16:54:22;14.73;;;10.43;;
64868;SDS011;51349;52.424;10.840;2022-11-21T16:59:24;11.27;;;9.07;;
64868;SDS011;51349;52.424;10.840;2022-11-21T17:04:25;10.57;;;7.63;;
64868;SDS011;51349;52.424;10.840;2022-11-21T17:09:25;10.77;;;7.60;;
64868;SDS011;51349;52.424;10.840;2022-11-21T17:14:26;10.13;;;7.20;;
64868;SDS011;51349;52.424;10.840;2022-11-21T17:19:27;10.27;;;6.77;;
64868;SDS011;51349;52.424;10.840;2022-11-21T17:24:27;7.90;;;6.37;;
64868;SDS011;51349;52.424;10.840;2022-11-21T17:29:28;12.03;;;8.80;;
64868;SDS011;51349;52.424;10.840;2022-11-21T17:34:29;10.73;;;8.13;;
64868;SDS011;51349;52.424;10.840;2022-11-21T17:39:30;14.23;;;9.00;;
64868;SDS011;51349;52.424;10.840;2022-11-21T17:44:30;10.43;;;7.60;;
64868;SDS011;51349;52.424;10.840;2022-11-21T17:49:32;12.73;;;7.83;;
64868;SDS011;51349;52.424;10.840;2022-11-21T17:54:36;10.40;;;7.87;;
64868;SDS011;51349;52.424;10.840;2022-11-21T17:59:36;8.93;;;7.47;;
64868;SDS011;51349;52.424;10.840;2022-11-21T18:04:38;16.63;;;12.33;;
64868;SDS011;51349;52.424;10.840;2022-11-21T18:09:39;12.83;;;8.80;;
64868;SDS011;51349;52.424;10.840;2022-11-21T18:14:39;9.07;;;6.83;;
64868;SDS011;51349;52.424;10.840;2022-11-21T18:19:40;13.27;;;9.33;;
64868;SDS011;51349;52.424;10.840;2022-11-21T18:24:41;31.43;;;16.53;;
64868;SDS011;51349;52.424;10.840;2022-11-21T18:29:41;13.43;;;9.23;;
64868;SDS011;51349;52.424;10.840;2022-11-21T18:34:42;12.17;;;8.90;;
64868;SDS011;51349;52.424;10.840;2022-11-21T18:39:42;9.67;;;7.67;;
64868;SDS011;51349;52.424;10.840;2022-11-21T18:44:43;11.70;;;8.70;;
64868;SDS011;51349;52.424;10.840;2022-11-21T18:49:43;11.20;;;8.20;;
64868;SDS011;51349;52.424;10.840;2022-11-21T18:54:44;17.13;;;11.03;;
64868;SDS011;51349;52.424;10.840;2022-11-21T18:59:45;18.63;;;11.17;;
64868;SDS011;51349;52.424;10.840;2022-11-21T19:04:45;16.80;;;11.00;;
64868;SDS011;51349;52.424;10.840;2022-11-21T19:09:46;15.63;;;9.40;;
64868;SDS011;51349;52.424;10.840;2022-11-21T19:14:47;17.77;;;9.93;;
64868;SDS011;51349;52.424;10.840;2022-11-21T19:19:50;18.87;;;11.73;;
64868;SDS011;51349;52.424;10.840;2022-11-21T19:24:51;17.33;;;10.17;;
64868;SDS011;51349;52.424;10.840;2022-11-21T19:29:52;21.67;;;12.00;;
64868;SDS011;51349;52.424;10.840;2022-11-21T19:34:54;57.63;;;26.83;;
64868;SDS011;51349;52.424;10.840;2022-11-21T19:39:54;19.70;;;10.80;;
64868;SDS011;51349;52.424;10.840;2022-11-21T19:44:55;21.70;;;13.00;;
64868;SDS011;51349;52.424;10.840;2022-11-21T19:49:57;24.23;;;12.97;;
64868;SDS011;51349;52.424;10.840;2022-11-21T19:54:57;30.40;;;19.23;;
64868;SDS011;51349;52.424;10.840;2022-11-21T19:59:58;51.60;;;27.90;;
64868;SDS011;51349;52.424;10.840;2022-11-21T20:04:59;41.53;;;21.07;;
64868;SDS011;51349;52.424;10.840;2022-11-21T20:09:59;37.97;;;19.80;;
64868;SDS011;51349;52.424;10.840;2022-11-21T20:15:01;44.63;;;21.03;;
64868;SDS011;51349;52.424;10.840;2022-11-21T20:20:01;31.83;;;16.90;;
64868;SDS011;51349;52.424;10.840;2022-11-21T20:25:02;64.37;;;29.90;;
64868;SDS011;51349;52.424;10.840;2022-11-21T20:30:03;38.17;;;17.67;;
64868;SDS011;51349;52.424;10.840;2022-11-21T20:35:04;33.57;;;15.60;;
64868;SDS011;51349;52.424;10.840;2022-11-21T20:40:05;41.63;;;17.20;;
64868;SDS011;51349;52.424;10.840;2022-11-21T20:45:07;45.30;;;18.93;;
64868;SDS011;51349;52.424;10.840;2022-11-21T20:50:08;40.90;;;17.00;;
64868;SDS011;51349;52.424;10.840;2022-11-21T20:55:09;51.27;;;20.27;;
64868;SDS011;51349;52.424;10.840;2022-11-21T21:00:09;47.27;;;17.37;;
64868;SDS011;51349;52.424;10.840;2022-11-21T21:05:11;57.93;;;22.00;;
64868;SDS011;51349;52.424;10.840;2022-11-21T21:10:11;48.33;;;18.60;;
64868;SDS011;51349;52.424;10.840;2022-11-21T21:15:12;56.27;;;19.90;;
64868;SDS011;51349;52.424;10.840;2022-11-21T21:20:13;53.87;;;18.73;;
64868;SDS011;51349;52.424;10.840;2022-11-21T21:25:13;53.80;;;19.73;;
64868;SDS011;51349;52.424;10.840;2022-11-21T21:30:15;55.20;;;19.73;;
64868;SDS011;51349;52.424;10.840;2022-11-21T21:35:16;57.57;;;18.50;;
64868;SDS011;51349;52.424;10.840;2022-11-21T21:40:17;50.50;;;17.90;;
64868;SDS011;51349;52.424;10.840;2022-11-21T21:45:17;43.93;;;17.00;;
64868;SDS011;51349;52.424;10.840;2022-11-21T21:50:18;54.67;;;20.13;;
64868;SDS011;51349;52.424;10.840;2022-11-21T21:55:18;68.90;;;23.23;;
64868;SDS011;51349;52.424;10.840;2022-11-21T22:00:19;70.23;;;27.83;;
64868;SDS011;51349;52.424;10.840;2022-11-21T22:05:19;51.67;;;20.33;;
64868;SDS011;51349;52.424;10.840;2022-11-21T22:10:20;48.53;;;20.03;;
64868;SDS011;51349;52.424;10.840;2022-11-21T22:15:20;56.63;;;23.37;;
64868;SDS011;51349;52.424;10.840;2022-11-21T22:20:21;46.87;;;20.30;;
64868;SDS011;51349;52.424;10.840;2022-11-21T22:25:22;40.87;;;19.87;;
64868;SDS011;51349;52.424;10.840;2022-11-21T22:30:22;42.63;;;18.13;;
64868;SDS011;51349;52.424;10.840;2022-11-21T22:35:23;42.67;;;19.93;;
64868;SDS011;51349;52.424;10.840;2022-11-21T22:40:24;37.57;;;16.43;;
64868;SDS011;51349;52.424;10.840;2022-11-21T22:45:25;39.13;;;18.07;;
64868;SDS011;51349;52.424;10.840;2022-11-21T22:50:26;40.03;;;19.33;;
64868;SDS011;51349;52.424;10.840;2022-11-21T22:55:26;36.23;;;16.43;;
64868;SDS011;51349;52.424;10.840;2022-11-21T23:00:27;38.17;;;18.80;;
64868;SDS011;51349;52.424;10.840;2022-11-21T23:05:28;42.77;;;20.43;;
64868;SDS011;51349;52.424;10.840;2022-11-21T23:10:28;36.07;;;16.37;;
64868;SDS011;51349;52.424;10.840;2022-11-21T23:15:29;36.93;;;17.10;;
64868;SDS011;51349;52.424;10.840;2022-11-21T23:20:29;33.30;;;16.50;;
64868;SDS011;51349;52.424;10.840;2022-11-21T23:25:30;39.47;;;22.57;;
64868;SDS011;51349;52.424;10.840;2022-11-21T23:30:30;35.97;;;17.00;;
64868;SDS011;51349;52.424;10.840;2022-11-21T23:35:31;33.73;;;17.33;;
64868;SDS011;51349;52.424;10.840;2022-11-21T23:40:32;25.63;;;12.87;;
64868;SDS011;51349;52.424;10.840;2022-11-21T23:45:32;35.87;;;17.13;;
64868;SDS011;51349;52.424;10.840;2022-11-21T23:50:33;29.27;;;13.47;;
64868;SDS011;51349;52.424;10.840;2022-11-21T23:55:34;33.53;;;18.07;;
